Sharon, South Carolina
Current Conditions -  °F | °C
As of 10:35 AM on Monday 22 Dec 2014 (Local Time) from KDCM Reporting Station
Haze Haze  
Wind Chill: 37°   Ceiling: 300
Heat Index: 43°   Visibility: 2mi
Dew Point: 41°   Wind: 9mph
Humidity: 93%   Direction: 40°NE
Pressure: 30.12"   Gusts: NA
Location:  34.95°N, 81.34°W
Report Text: KDCM 221535Z AUTO 04008KT 2SM BR OVC003 06/05 A3012 RMK AO2
Loading
Personal Weather Stations






























Interactive Weather Map New forecast layout! Learn more

10-Day Weather Forecast

Advertisements
Track Severe Weather on mobile